sensor_id;sensor_type;location;lat;lon;timestamp;P1;durP1;ratioP1;P2;durP2;ratioP2
75021;SDS011;63583;49.976;20.182;2023-09-19T00:02:16;11.32;;;7.88;;
75021;SDS011;63583;49.976;20.182;2023-09-19T00:04:43;10.32;;;8.02;;
75021;SDS011;63583;49.976;20.182;2023-09-19T00:07:09;10.63;;;7.20;;
75021;SDS011;63583;49.976;20.182;2023-09-19T00:09:35;11.13;;;7.85;;
75021;SDS011;63583;49.976;20.182;2023-09-19T00:12:06;12.00;;;7.82;;
75021;SDS011;63583;49.976;20.182;2023-09-19T00:14:35;9.60;;;7.35;;
75021;SDS011;63583;49.976;20.182;2023-09-19T00:17:01;9.85;;;7.57;;
75021;SDS011;63583;49.976;20.182;2023-09-19T00:19:36;11.38;;;7.68;;
75021;SDS011;63583;49.976;20.182;2023-09-19T00:24:33;10.45;;;7.35;;
75021;SDS011;63583;49.976;20.182;2023-09-19T00:26:59;12.13;;;8.43;;
75021;SDS011;63583;49.976;20.182;2023-09-19T00:29:25;10.75;;;8.00;;
75021;SDS011;63583;49.976;20.182;2023-09-19T00:31:54;12.52;;;7.90;;
75021;SDS011;63583;49.976;20.182;2023-09-19T00:34:22;15.15;;;8.40;;
75021;SDS011;63583;49.976;20.182;2023-09-19T00:36:48;14.48;;;8.90;;
75021;SDS011;63583;49.976;20.182;2023-09-19T00:39:14;16.45;;;9.25;;
75021;SDS011;63583;49.976;20.182;2023-09-19T00:41:39;15.20;;;9.48;;
75021;SDS011;63583;49.976;20.182;2023-09-19T00:44:06;14.55;;;9.38;;
75021;SDS011;63583;49.976;20.182;2023-09-19T00:46:32;13.50;;;9.02;;
75021;SDS011;63583;49.976;20.182;2023-09-19T00:48:58;17.52;;;9.55;;
75021;SDS011;63583;49.976;20.182;2023-09-19T00:51:24;15.90;;;9.20;;
75021;SDS011;63583;49.976;20.182;2023-09-19T00:53:51;19.67;;;9.23;;
75021;SDS011;63583;49.976;20.182;2023-09-19T00:56:18;14.02;;;9.70;;
75021;SDS011;63583;49.976;20.182;2023-09-19T00:58:44;15.57;;;9.93;;
75021;SDS011;63583;49.976;20.182;2023-09-19T01:01:12;15.75;;;10.02;;
75021;SDS011;63583;49.976;20.182;2023-09-19T01:03:40;15.63;;;10.75;;
75021;SDS011;63583;49.976;20.182;2023-09-19T01:06:06;16.75;;;10.13;;
75021;SDS011;63583;49.976;20.182;2023-09-19T01:08:33;16.60;;;10.23;;
75021;SDS011;63583;49.976;20.182;2023-09-19T01:11:12;16.50;;;11.30;;
75021;SDS011;63583;49.976;20.182;2023-09-19T01:13:48;16.65;;;11.02;;
75021;SDS011;63583;49.976;20.182;2023-09-19T01:16:32;14.68;;;10.77;;
75021;SDS011;63583;49.976;20.182;2023-09-19T01:22:06;16.83;;;10.90;;
75021;SDS011;63583;49.976;20.182;2023-09-19T01:30:45;13.98;;;10.07;;
75021;SDS011;63583;49.976;20.182;2023-09-19T01:33:12;14.52;;;10.35;;
75021;SDS011;63583;49.976;20.182;2023-09-19T01:35:40;15.13;;;10.82;;
75021;SDS011;63583;49.976;20.182;2023-09-19T01:38:06;16.02;;;10.73;;
75021;SDS011;63583;49.976;20.182;2023-09-19T01:40:37;16.88;;;10.55;;
75021;SDS011;63583;49.976;20.182;2023-09-19T01:43:49;15.15;;;10.75;;
75021;SDS011;63583;49.976;20.182;2023-09-19T01:46:09;16.95;;;11.20;;
75021;SDS011;63583;49.976;20.182;2023-09-19T01:51:31;18.80;;;10.70;;
75021;SDS011;63583;49.976;20.182;2023-09-19T01:54:03;15.43;;;10.23;;
75021;SDS011;63583;49.976;20.182;2023-09-19T01:56:36;18.02;;;12.00;;
75021;SDS011;63583;49.976;20.182;2023-09-19T01:59:10;14.80;;;9.88;;
75021;SDS011;63583;49.976;20.182;2023-09-19T02:01:40;15.40;;;10.05;;
75021;SDS011;63583;49.976;20.182;2023-09-19T02:04:10;15.40;;;10.55;;
75021;SDS011;63583;49.976;20.182;2023-09-19T02:06:39;16.13;;;10.65;;
75021;SDS011;63583;49.976;20.182;2023-09-19T02:09:06;14.93;;;10.27;;
75021;SDS011;63583;49.976;20.182;2023-09-19T02:11:32;14.52;;;9.73;;
75021;SDS011;63583;49.976;20.182;2023-09-19T02:13:58;16.08;;;10.35;;
75021;SDS011;63583;49.976;20.182;2023-09-19T02:16:25;17.20;;;11.30;;
75021;SDS011;63583;49.976;20.182;2023-09-19T02:18:50;15.48;;;11.55;;
75021;SDS011;63583;49.976;20.182;2023-09-19T02:21:17;17.42;;;10.85;;
75021;SDS011;63583;49.976;20.182;2023-09-19T02:23:44;17.15;;;11.32;;
75021;SDS011;63583;49.976;20.182;2023-09-19T02:26:13;18.00;;;10.80;;
75021;SDS011;63583;49.976;20.182;2023-09-19T02:28:39;18.08;;;11.57;;
75021;SDS011;63583;49.976;20.182;2023-09-19T02:31:05;16.52;;;11.63;;
75021;SDS011;63583;49.976;20.182;2023-09-19T02:33:31;16.90;;;11.35;;
75021;SDS011;63583;49.976;20.182;2023-09-19T02:35:58;17.13;;;11.68;;
75021;SDS011;63583;49.976;20.182;2023-09-19T02:38:25;17.30;;;11.77;;
75021;SDS011;63583;49.976;20.182;2023-09-19T02:40:52;15.50;;;10.93;;
75021;SDS011;63583;49.976;20.182;2023-09-19T02:43:18;16.02;;;11.30;;
75021;SDS011;63583;49.976;20.182;2023-09-19T02:45:45;21.13;;;11.50;;
75021;SDS011;63583;49.976;20.182;2023-09-19T02:48:20;17.27;;;11.20;;
75021;SDS011;63583;49.976;20.182;2023-09-19T02:50:49;17.33;;;11.98;;
75021;SDS011;63583;49.976;20.182;2023-09-19T02:53:15;18.80;;;12.18;;
75021;SDS011;63583;49.976;20.182;2023-09-19T02:55:41;17.67;;;12.27;;
75021;SDS011;63583;49.976;20.182;2023-09-19T02:58:07;18.30;;;12.07;;
75021;SDS011;63583;49.976;20.182;2023-09-19T03:00:34;20.00;;;12.70;;
75021;SDS011;63583;49.976;20.182;2023-09-19T03:03:00;18.25;;;12.40;;
75021;SDS011;63583;49.976;20.182;2023-09-19T03:05:27;17.83;;;12.57;;
75021;SDS011;63583;49.976;20.182;2023-09-19T03:07:56;17.73;;;11.98;;
75021;SDS011;63583;49.976;20.182;2023-09-19T03:10:22;17.05;;;11.73;;
75021;SDS011;63583;49.976;20.182;2023-09-19T03:12:50;17.63;;;12.63;;
75021;SDS011;63583;49.976;20.182;2023-09-19T03:15:16;17.67;;;12.02;;
75021;SDS011;63583;49.976;20.182;2023-09-19T03:17:44;18.45;;;11.73;;
75021;SDS011;63583;49.976;20.182;2023-09-19T03:20:10;18.13;;;12.07;;
75021;SDS011;63583;49.976;20.182;2023-09-19T03:22:39;21.60;;;12.93;;
75021;SDS011;63583;49.976;20.182;2023-09-19T03:25:06;18.27;;;12.52;;
75021;SDS011;63583;49.976;20.182;2023-09-19T03:27:33;18.42;;;12.32;;
75021;SDS011;63583;49.976;20.182;2023-09-19T03:30:00;17.77;;;12.10;;
75021;SDS011;63583;49.976;20.182;2023-09-19T03:32:29;17.77;;;12.13;;
75021;SDS011;63583;49.976;20.182;2023-09-19T03:34:55;17.25;;;11.65;;
75021;SDS011;63583;49.976;20.182;2023-09-19T03:37:21;15.68;;;11.52;;
75021;SDS011;63583;49.976;20.182;2023-09-19T03:39:47;20.17;;;12.02;;
75021;SDS011;63583;49.976;20.182;2023-09-19T03:42:12;19.30;;;11.88;;
75021;SDS011;63583;49.976;20.182;2023-09-19T03:44:38;15.45;;;10.75;;
75021;SDS011;63583;49.976;20.182;2023-09-19T03:47:04;16.15;;;11.25;;
75021;SDS011;63583;49.976;20.182;2023-09-19T03:49:30;19.10;;;12.27;;
75021;SDS011;63583;49.976;20.182;2023-09-19T03:51:56;17.48;;;12.18;;
75021;SDS011;63583;49.976;20.182;2023-09-19T03:54:22;19.15;;;12.25;;
75021;SDS011;63583;49.976;20.182;2023-09-19T03:56:48;17.70;;;11.45;;
75021;SDS011;63583;49.976;20.182;2023-09-19T03:59:14;19.05;;;12.50;;
75021;SDS011;63583;49.976;20.182;2023-09-19T04:01:39;17.48;;;11.35;;
75021;SDS011;63583;49.976;20.182;2023-09-19T04:04:07;16.52;;;11.65;;
75021;SDS011;63583;49.976;20.182;2023-09-19T04:09:02;20.13;;;12.18;;
75021;SDS011;63583;49.976;20.182;2023-09-19T04:11:29;15.35;;;11.48;;
75021;SDS011;63583;49.976;20.182;2023-09-19T04:13:58;17.45;;;11.70;;
75021;SDS011;63583;49.976;20.182;2023-09-19T04:16:24;18.33;;;11.95;;
75021;SDS011;63583;49.976;20.182;2023-09-19T04:18:50;18.60;;;12.25;;
75021;SDS011;63583;49.976;20.182;2023-09-19T04:21:16;17.65;;;11.35;;
75021;SDS011;63583;49.976;20.182;2023-09-19T04:23:42;17.27;;;11.63;;
75021;SDS011;63583;49.976;20.182;2023-09-19T04:26:08;15.65;;;11.25;;
75021;SDS011;63583;49.976;20.182;2023-09-19T04:28:34;16.38;;;11.68;;
75021;SDS011;63583;49.976;20.182;2023-09-19T04:31:02;17.25;;;11.50;;
75021;SDS011;63583;49.976;20.182;2023-09-19T04:33:28;17.13;;;12.15;;
75021;SDS011;63583;49.976;20.182;2023-09-19T04:35:54;19.13;;;12.88;;
75021;SDS011;63583;49.976;20.182;2023-09-19T04:38:20;17.20;;;12.25;;
75021;SDS011;63583;49.976;20.182;2023-09-19T04:40:46;19.45;;;12.85;;
75021;SDS011;63583;49.976;20.182;2023-09-19T04:43:12;17.40;;;11.90;;
75021;SDS011;63583;49.976;20.182;2023-09-19T04:45:39;17.05;;;12.20;;
75021;SDS011;63583;49.976;20.182;2023-09-19T04:48:07;19.27;;;13.00;;
75021;SDS011;63583;49.976;20.182;2023-09-19T04:50:36;17.55;;;13.15;;
75021;SDS011;63583;49.976;20.182;2023-09-19T04:53:02;18.63;;;12.90;;
75021;SDS011;63583;49.976;20.182;2023-09-19T04:55:28;16.40;;;12.20;;
75021;SDS011;63583;49.976;20.182;2023-09-19T04:57:55;18.30;;;12.18;;
75021;SDS011;63583;49.976;20.182;2023-09-19T05:00:21;18.67;;;13.32;;
75021;SDS011;63583;49.976;20.182;2023-09-19T05:02:56;16.80;;;11.90;;
75021;SDS011;63583;49.976;20.182;2023-09-19T05:05:22;18.77;;;12.88;;
75021;SDS011;63583;49.976;20.182;2023-09-19T05:07:50;17.90;;;12.43;;
75021;SDS011;63583;49.976;20.182;2023-09-19T05:10:18;18.58;;;11.68;;
75021;SDS011;63583;49.976;20.182;2023-09-19T05:12:44;19.58;;;13.02;;
75021;SDS011;63583;49.976;20.182;2023-09-19T05:15:12;20.27;;;12.38;;
75021;SDS011;63583;49.976;20.182;2023-09-19T05:17:40;21.42;;;12.82;;
75021;SDS011;63583;49.976;20.182;2023-09-19T05:20:06;19.55;;;13.13;;
75021;SDS011;63583;49.976;20.182;2023-09-19T05:22:42;21.90;;;13.43;;
75021;SDS011;63583;49.976;20.182;2023-09-19T05:25:11;19.60;;;12.73;;
75021;SDS011;63583;49.976;20.182;2023-09-19T05:27:42;17.00;;;12.20;;
75021;SDS011;63583;49.976;20.182;2023-09-19T05:30:08;18.88;;;11.93;;
75021;SDS011;63583;49.976;20.182;2023-09-19T05:32:35;17.58;;;12.15;;
75021;SDS011;63583;49.976;20.182;2023-09-19T05:35:00;17.27;;;12.68;;
75021;SDS011;63583;49.976;20.182;2023-09-19T05:37:26;18.92;;;12.10;;
75021;SDS011;63583;49.976;20.182;2023-09-19T05:39:52;17.10;;;12.43;;
75021;SDS011;63583;49.976;20.182;2023-09-19T05:44:46;17.92;;;11.70;;
75021;SDS011;63583;49.976;20.182;2023-09-19T05:47:12;18.60;;;12.98;;
75021;SDS011;63583;49.976;20.182;2023-09-19T05:49:38;20.98;;;13.32;;
75021;SDS011;63583;49.976;20.182;2023-09-19T05:52:07;20.75;;;14.30;;
75021;SDS011;63583;49.976;20.182;2023-09-19T05:54:32;21.85;;;14.60;;
75021;SDS011;63583;49.976;20.182;2023-09-19T05:57:00;24.85;;;15.05;;
75021;SDS011;63583;49.976;20.182;2023-09-19T05:59:27;22.80;;;14.52;;
75021;SDS011;63583;49.976;20.182;2023-09-19T06:01:53;23.73;;;16.00;;
75021;SDS011;63583;49.976;20.182;2023-09-19T06:04:19;29.23;;;16.33;;
75021;SDS011;63583;49.976;20.182;2023-09-19T06:06:45;23.58;;;15.07;;
75021;SDS011;63583;49.976;20.182;2023-09-19T06:09:12;25.90;;;15.95;;
75021;SDS011;63583;49.976;20.182;2023-09-19T06:11:38;25.70;;;15.73;;
75021;SDS011;63583;49.976;20.182;2023-09-19T06:14:03;26.95;;;15.63;;
75021;SDS011;63583;49.976;20.182;2023-09-19T06:16:29;25.77;;;16.33;;
75021;SDS011;63583;49.976;20.182;2023-09-19T06:18:57;24.85;;;16.27;;
75021;SDS011;63583;49.976;20.182;2023-09-19T06:21:25;24.73;;;16.40;;
75021;SDS011;63583;49.976;20.182;2023-09-19T06:23:52;26.50;;;16.60;;
75021;SDS011;63583;49.976;20.182;2023-09-19T06:26:19;26.98;;;16.13;;
75021;SDS011;63583;49.976;20.182;2023-09-19T06:28:44;29.23;;;17.45;;
75021;SDS011;63583;49.976;20.182;2023-09-19T06:31:10;31.23;;;17.27;;
75021;SDS011;63583;49.976;20.182;2023-09-19T06:33:36;32.60;;;18.75;;
75021;SDS011;63583;49.976;20.182;2023-09-19T06:36:06;31.13;;;17.70;;
75021;SDS011;63583;49.976;20.182;2023-09-19T06:38:32;32.28;;;19.00;;
75021;SDS011;63583;49.976;20.182;2023-09-19T06:41:01;33.47;;;19.83;;
75021;SDS011;63583;49.976;20.182;2023-09-19T06:43:31;35.28;;;21.20;;
75021;SDS011;63583;49.976;20.182;2023-09-19T06:45:59;33.53;;;20.45;;
75021;SDS011;63583;49.976;20.182;2023-09-19T06:48:26;39.50;;;22.52;;
75021;SDS011;63583;49.976;20.182;2023-09-19T06:50:55;37.83;;;25.20;;
75021;SDS011;63583;49.976;20.182;2023-09-19T06:53:23;38.90;;;23.13;;
75021;SDS011;63583;49.976;20.182;2023-09-19T06:55:50;38.20;;;22.65;;
75021;SDS011;63583;49.976;20.182;2023-09-19T06:58:16;36.63;;;21.30;;
75021;SDS011;63583;49.976;20.182;2023-09-19T07:00:42;39.53;;;22.45;;
75021;SDS011;63583;49.976;20.182;2023-09-19T07:03:09;37.40;;;22.10;;
75021;SDS011;63583;49.976;20.182;2023-09-19T07:05:39;37.58;;;22.75;;
75021;SDS011;63583;49.976;20.182;2023-09-19T07:08:05;39.10;;;22.98;;
75021;SDS011;63583;49.976;20.182;2023-09-19T07:10:32;41.55;;;24.38;;
75021;SDS011;63583;49.976;20.182;2023-09-19T07:12:59;40.97;;;23.42;;
75021;SDS011;63583;49.976;20.182;2023-09-19T07:15:26;39.40;;;23.77;;
75021;SDS011;63583;49.976;20.182;2023-09-19T07:17:53;39.83;;;22.90;;
75021;SDS011;63583;49.976;20.182;2023-09-19T07:20:20;35.28;;;23.00;;
75021;SDS011;63583;49.976;20.182;2023-09-19T07:22:46;43.35;;;25.88;;
75021;SDS011;63583;49.976;20.182;2023-09-19T07:25:13;39.33;;;24.70;;
75021;SDS011;63583;49.976;20.182;2023-09-19T07:27:43;35.90;;;22.35;;
75021;SDS011;63583;49.976;20.182;2023-09-19T07:30:09;33.13;;;20.70;;
75021;SDS011;63583;49.976;20.182;2023-09-19T07:32:37;35.60;;;21.63;;
75021;SDS011;63583;49.976;20.182;2023-09-19T07:35:04;33.03;;;20.58;;
75021;SDS011;63583;49.976;20.182;2023-09-19T07:37:33;33.40;;;21.33;;
75021;SDS011;63583;49.976;20.182;2023-09-19T07:40:00;33.92;;;22.25;;
75021;SDS011;63583;49.976;20.182;2023-09-19T07:42:26;33.83;;;21.35;;
75021;SDS011;63583;49.976;20.182;2023-09-19T07:44:52;32.17;;;19.52;;
75021;SDS011;63583;49.976;20.182;2023-09-19T07:47:19;27.77;;;18.55;;
75021;SDS011;63583;49.976;20.182;2023-09-19T07:49:47;29.45;;;18.40;;
75021;SDS011;63583;49.976;20.182;2023-09-19T07:52:13;27.92;;;18.70;;
75021;SDS011;63583;49.976;20.182;2023-09-19T07:54:39;30.45;;;20.52;;
75021;SDS011;63583;49.976;20.182;2023-09-19T07:57:06;26.65;;;17.25;;
75021;SDS011;63583;49.976;20.182;2023-09-19T07:59:32;25.85;;;18.10;;
75021;SDS011;63583;49.976;20.182;2023-09-19T08:01:58;28.42;;;18.05;;
75021;SDS011;63583;49.976;20.182;2023-09-19T08:04:24;24.85;;;16.92;;
75021;SDS011;63583;49.976;20.182;2023-09-19T08:06:51;27.33;;;17.30;;
75021;SDS011;63583;49.976;20.182;2023-09-19T08:09:17;19.55;;;13.60;;
75021;SDS011;63583;49.976;20.182;2023-09-19T08:11:46;16.85;;;10.85;;
75021;SDS011;63583;49.976;20.182;2023-09-19T08:14:13;10.82;;;8.32;;
75021;SDS011;63583;49.976;20.182;2023-09-19T08:16:39;9.07;;;6.55;;
75021;SDS011;63583;49.976;20.182;2023-09-19T08:19:05;7.88;;;5.72;;
75021;SDS011;63583;49.976;20.182;2023-09-19T08:21:31;8.38;;;5.53;;
75021;SDS011;63583;49.976;20.182;2023-09-19T08:23:57;7.68;;;5.20;;
75021;SDS011;63583;49.976;20.182;2023-09-19T08:26:23;6.07;;;3.95;;
75021;SDS011;63583;49.976;20.182;2023-09-19T08:28:51;6.97;;;3.78;;
75021;SDS011;63583;49.976;20.182;2023-09-19T08:31:16;5.80;;;3.75;;
75021;SDS011;63583;49.976;20.182;2023-09-19T08:33:42;7.00;;;4.03;;
75021;SDS011;63583;49.976;20.182;2023-09-19T08:36:12;5.60;;;4.10;;
75021;SDS011;63583;49.976;20.182;2023-09-19T08:38:40;6.28;;;4.30;;
75021;SDS011;63583;49.976;20.182;2023-09-19T08:41:06;5.68;;;4.20;;
75021;SDS011;63583;49.976;20.182;2023-09-19T08:43:33;7.85;;;3.92;;
75021;SDS011;63583;49.976;20.182;2023-09-19T08:46:03;6.50;;;4.47;;
75021;SDS011;63583;49.976;20.182;2023-09-19T08:48:33;7.72;;;4.35;;
75021;SDS011;63583;49.976;20.182;2023-09-19T08:51:00;7.15;;;4.72;;
75021;SDS011;63583;49.976;20.182;2023-09-19T08:53:39;8.02;;;4.93;;
75021;SDS011;63583;49.976;20.182;2023-09-19T08:56:14;9.18;;;5.03;;
75021;SDS011;63583;49.976;20.182;2023-09-19T08:58:44;10.35;;;5.28;;
75021;SDS011;63583;49.976;20.182;2023-09-19T09:01:14;7.07;;;5.32;;
75021;SDS011;63583;49.976;20.182;2023-09-19T09:03:42;9.00;;;5.40;;
75021;SDS011;63583;49.976;20.182;2023-09-19T09:06:13;8.35;;;5.35;;
75021;SDS011;63583;49.976;20.182;2023-09-19T09:08:41;8.07;;;5.63;;
75021;SDS011;63583;49.976;20.182;2023-09-19T09:11:08;8.73;;;5.38;;
75021;SDS011;63583;49.976;20.182;2023-09-19T09:13:35;6.72;;;4.78;;
75021;SDS011;63583;49.976;20.182;2023-09-19T09:16:02;7.72;;;5.20;;
75021;SDS011;63583;49.976;20.182;2023-09-19T09:18:28;8.50;;;5.18;;
75021;SDS011;63583;49.976;20.182;2023-09-19T09:23:23;10.05;;;5.88;;
75021;SDS011;63583;49.976;20.182;2023-09-19T09:25:52;11.20;;;6.65;;
75021;SDS011;63583;49.976;20.182;2023-09-19T09:28:20;11.45;;;7.10;;
75021;SDS011;63583;49.976;20.182;2023-09-19T09:30:47;10.45;;;6.25;;
75021;SDS011;63583;49.976;20.182;2023-09-19T09:33:13;10.82;;;6.20;;
75021;SDS011;63583;49.976;20.182;2023-09-19T09:38:26;12.65;;;6.93;;
75021;SDS011;63583;49.976;20.182;2023-09-19T09:40:56;7.72;;;5.60;;
75021;SDS011;63583;49.976;20.182;2023-09-19T09:43:45;9.93;;;6.43;;
75021;SDS011;63583;49.976;20.182;2023-09-19T09:46:16;9.82;;;6.57;;
75021;SDS011;63583;49.976;20.182;2023-09-19T09:49:03;9.93;;;6.32;;
75021;SDS011;63583;49.976;20.182;2023-09-19T09:51:49;10.07;;;6.43;;
75021;SDS011;63583;49.976;20.182;2023-09-19T09:54:25;13.35;;;7.88;;
75021;SDS011;63583;49.976;20.182;2023-09-19T09:56:58;11.90;;;6.68;;
75021;SDS011;63583;49.976;20.182;2023-09-19T10:02:20;10.00;;;6.32;;
75021;SDS011;63583;49.976;20.182;2023-09-19T10:04:53;9.35;;;6.15;;
75021;SDS011;63583;49.976;20.182;2023-09-19T10:07:39;9.73;;;7.30;;
75021;SDS011;63583;49.976;20.182;2023-09-19T10:10:08;9.20;;;6.10;;
75021;SDS011;63583;49.976;20.182;2023-09-19T10:12:49;9.20;;;6.55;;
75021;SDS011;63583;49.976;20.182;2023-09-19T10:15:21;9.82;;;6.75;;
75021;SDS011;63583;49.976;20.182;2023-09-19T10:17:51;11.82;;;6.70;;
75021;SDS011;63583;49.976;20.182;2023-09-19T10:20:21;10.48;;;6.57;;
75021;SDS011;63583;49.976;20.182;2023-09-19T10:23:09;9.77;;;6.75;;
75021;SDS011;63583;49.976;20.182;2023-09-19T10:25:39;9.63;;;6.60;;
75021;SDS011;63583;49.976;20.182;2023-09-19T10:28:06;11.35;;;6.95;;
75021;SDS011;63583;49.976;20.182;2023-09-19T10:30:36;10.77;;;6.57;;
75021;SDS011;63583;49.976;20.182;2023-09-19T10:33:13;9.02;;;6.53;;
75021;SDS011;63583;49.976;20.182;2023-09-19T10:35:44;10.07;;;6.78;;
75021;SDS011;63583;49.976;20.182;2023-09-19T10:38:11;13.27;;;7.10;;
75021;SDS011;63583;49.976;20.182;2023-09-19T10:40:38;11.20;;;6.93;;
75021;SDS011;63583;49.976;20.182;2023-09-19T10:43:15;12.98;;;7.90;;
75021;SDS011;63583;49.976;20.182;2023-09-19T10:45:47;12.68;;;7.40;;
75021;SDS011;63583;49.976;20.182;2023-09-19T10:48:15;12.25;;;7.80;;
75021;SDS011;63583;49.976;20.182;2023-09-19T10:50:53;10.80;;;7.93;;
75021;SDS011;63583;49.976;20.182;2023-09-19T10:53:28;11.57;;;7.18;;
75021;SDS011;63583;49.976;20.182;2023-09-19T10:55:59;11.95;;;8.00;;
75021;SDS011;63583;49.976;20.182;2023-09-19T10:58:31;12.05;;;7.55;;
75021;SDS011;63583;49.976;20.182;2023-09-19T11:01:05;12.23;;;8.30;;
75021;SDS011;63583;49.976;20.182;2023-09-19T11:03:33;11.95;;;7.70;;
75021;SDS011;63583;49.976;20.182;2023-09-19T11:06:02;11.57;;;7.30;;
75021;SDS011;63583;49.976;20.182;2023-09-19T11:30:47;14.32;;;9.40;;
75021;SDS011;63583;49.976;20.182;2023-09-19T11:46:35;11.13;;;7.57;;
75021;SDS011;63583;49.976;20.182;2023-09-19T11:49:17;11.65;;;7.82;;
75021;SDS011;63583;49.976;20.182;2023-09-19T11:51:46;10.88;;;7.32;;
75021;SDS011;63583;49.976;20.182;2023-09-19T11:54:14;12.57;;;7.32;;
75021;SDS011;63583;49.976;20.182;2023-09-19T11:56:54;10.13;;;7.13;;
75021;SDS011;63583;49.976;20.182;2023-09-19T11:59:21;10.63;;;7.75;;
75021;SDS011;63583;49.976;20.182;2023-09-19T12:01:54;11.45;;;7.22;;
75021;SDS011;63583;49.976;20.182;2023-09-19T12:07:00;13.43;;;9.73;;
75021;SDS011;63583;49.976;20.182;2023-09-19T12:09:27;11.38;;;6.93;;
75021;SDS011;63583;49.976;20.182;2023-09-19T12:11:53;10.60;;;7.30;;
75021;SDS011;63583;49.976;20.182;2023-09-19T12:14:22;9.77;;;7.05;;
75021;SDS011;63583;49.976;20.182;2023-09-19T12:16:54;10.60;;;7.20;;
75021;SDS011;63583;49.976;20.182;2023-09-19T12:19:21;8.65;;;6.40;;
75021;SDS011;63583;49.976;20.182;2023-09-19T12:22:01;9.70;;;6.22;;
75021;SDS011;63583;49.976;20.182;2023-09-19T12:24:30;10.50;;;6.53;;
75021;SDS011;63583;49.976;20.182;2023-09-19T12:27:00;8.88;;;6.05;;
75021;SDS011;63583;49.976;20.182;2023-09-19T12:29:27;9.88;;;6.10;;
75021;SDS011;63583;49.976;20.182;2023-09-19T12:31:53;8.68;;;6.03;;
75021;SDS011;63583;49.976;20.182;2023-09-19T12:34:23;10.10;;;6.18;;
75021;SDS011;63583;49.976;20.182;2023-09-19T12:37:08;8.18;;;5.68;;
75021;SDS011;63583;49.976;20.182;2023-09-19T12:39:42;8.27;;;5.53;;
75021;SDS011;63583;49.976;20.182;2023-09-19T12:42:13;7.93;;;5.53;;
75021;SDS011;63583;49.976;20.182;2023-09-19T12:44:40;9.23;;;6.38;;
75021;SDS011;63583;49.976;20.182;2023-09-19T12:47:10;8.65;;;5.75;;
75021;SDS011;63583;49.976;20.182;2023-09-19T12:50:04;9.00;;;5.38;;
75021;SDS011;63583;49.976;20.182;2023-09-19T12:52:44;9.23;;;5.72;;
75021;SDS011;63583;49.976;20.182;2023-09-19T12:55:24;8.90;;;5.95;;
75021;SDS011;63583;49.976;20.182;2023-09-19T12:57:58;11.82;;;6.60;;
75021;SDS011;63583;49.976;20.182;2023-09-19T13:00:40;8.57;;;6.28;;
75021;SDS011;63583;49.976;20.182;2023-09-19T13:08:24;9.23;;;6.43;;
75021;SDS011;63583;49.976;20.182;2023-09-19T13:11:12;9.88;;;6.32;;
75021;SDS011;63583;49.976;20.182;2023-09-19T13:13:47;10.85;;;6.68;;
75021;SDS011;63583;49.976;20.182;2023-09-19T13:16:15;9.85;;;6.68;;
75021;SDS011;63583;49.976;20.182;2023-09-19T13:18:45;9.30;;;6.57;;
75021;SDS011;63583;49.976;20.182;2023-09-19T13:23:53;10.55;;;7.45;;
75021;SDS011;63583;49.976;20.182;2023-09-19T13:26:25;11.02;;;7.15;;
75021;SDS011;63583;49.976;20.182;2023-09-19T13:28:51;10.95;;;7.75;;
75021;SDS011;63583;49.976;20.182;2023-09-19T13:31:17;10.88;;;6.95;;
75021;SDS011;63583;49.976;20.182;2023-09-19T13:33:44;11.38;;;7.97;;
75021;SDS011;63583;49.976;20.182;2023-09-19T13:36:11;11.07;;;7.65;;
75021;SDS011;63583;49.976;20.182;2023-09-19T13:38:38;10.57;;;7.85;;
75021;SDS011;63583;49.976;20.182;2023-09-19T13:41:07;12.57;;;8.10;;
75021;SDS011;63583;49.976;20.182;2023-09-19T13:43:33;10.65;;;7.90;;
75021;SDS011;63583;49.976;20.182;2023-09-19T13:45:59;11.32;;;8.85;;
75021;SDS011;63583;49.976;20.182;2023-09-19T13:48:24;12.73;;;9.32;;
75021;SDS011;63583;49.976;20.182;2023-09-19T13:50:50;11.05;;;7.93;;
75021;SDS011;63583;49.976;20.182;2023-09-19T13:53:16;13.30;;;8.77;;
75021;SDS011;63583;49.976;20.182;2023-09-19T13:55:42;12.45;;;8.20;;
75021;SDS011;63583;49.976;20.182;2023-09-19T13:58:08;11.77;;;7.50;;
75021;SDS011;63583;49.976;20.182;2023-09-19T14:00:36;11.50;;;8.00;;
75021;SDS011;63583;49.976;20.182;2023-09-19T14:03:03;12.35;;;7.93;;
75021;SDS011;63583;49.976;20.182;2023-09-19T14:05:31;12.35;;;8.90;;
75021;SDS011;63583;49.976;20.182;2023-09-19T14:07:56;11.52;;;8.52;;
75021;SDS011;63583;49.976;20.182;2023-09-19T14:10:25;14.07;;;7.75;;
75021;SDS011;63583;49.976;20.182;2023-09-19T14:12:53;12.18;;;8.02;;
75021;SDS011;63583;49.976;20.182;2023-09-19T14:15:18;10.70;;;7.50;;
75021;SDS011;63583;49.976;20.182;2023-09-19T14:17:44;11.13;;;8.38;;
75021;SDS011;63583;49.976;20.182;2023-09-19T14:20:11;12.50;;;8.57;;
75021;SDS011;63583;49.976;20.182;2023-09-19T14:22:36;9.85;;;7.80;;
75021;SDS011;63583;49.976;20.182;2023-09-19T14:25:03;12.82;;;9.27;;
75021;SDS011;63583;49.976;20.182;2023-09-19T14:27:29;14.68;;;8.40;;
75021;SDS011;63583;49.976;20.182;2023-09-19T14:29:55;12.25;;;8.57;;
75021;SDS011;63583;49.976;20.182;2023-09-19T14:32:22;12.50;;;8.52;;
75021;SDS011;63583;49.976;20.182;2023-09-19T14:34:48;9.90;;;7.53;;
75021;SDS011;63583;49.976;20.182;2023-09-19T14:37:14;11.07;;;7.43;;
75021;SDS011;63583;49.976;20.182;2023-09-19T14:39:42;10.60;;;7.20;;
75021;SDS011;63583;49.976;20.182;2023-09-19T14:44:36;10.77;;;7.25;;
75021;SDS011;63583;49.976;20.182;2023-09-19T14:47:05;10.88;;;7.65;;
75021;SDS011;63583;49.976;20.182;2023-09-19T14:49:33;10.40;;;8.05;;
75021;SDS011;63583;49.976;20.182;2023-09-19T14:52:00;10.35;;;8.10;;
75021;SDS011;63583;49.976;20.182;2023-09-19T14:54:29;10.35;;;7.38;;
75021;SDS011;63583;49.976;20.182;2023-09-19T14:56:56;13.43;;;7.82;;
75021;SDS011;63583;49.976;20.182;2023-09-19T14:59:30;10.82;;;7.50;;
75021;SDS011;63583;49.976;20.182;2023-09-19T15:01:57;9.98;;;7.63;;
75021;SDS011;63583;49.976;20.182;2023-09-19T15:04:24;10.32;;;7.65;;
75021;SDS011;63583;49.976;20.182;2023-09-19T15:06:49;13.02;;;7.55;;
75021;SDS011;63583;49.976;20.182;2023-09-19T15:09:22;12.10;;;8.13;;
75021;SDS011;63583;49.976;20.182;2023-09-19T15:11:52;10.27;;;7.20;;
75021;SDS011;63583;49.976;20.182;2023-09-19T15:14:18;9.68;;;7.30;;
75021;SDS011;63583;49.976;20.182;2023-09-19T15:16:44;10.60;;;7.70;;
75021;SDS011;63583;49.976;20.182;2023-09-19T15:19:10;11.07;;;7.13;;
75021;SDS011;63583;49.976;20.182;2023-09-19T15:21:36;10.88;;;7.60;;
75021;SDS011;63583;49.976;20.182;2023-09-19T15:24:03;9.75;;;7.53;;
75021;SDS011;63583;49.976;20.182;2023-09-19T15:26:30;11.93;;;7.78;;
75021;SDS011;63583;49.976;20.182;2023-09-19T15:28:56;11.23;;;7.55;;
75021;SDS011;63583;49.976;20.182;2023-09-19T15:31:22;11.68;;;7.85;;
75021;SDS011;63583;49.976;20.182;2023-09-19T15:33:48;10.40;;;8.10;;
75021;SDS011;63583;49.976;20.182;2023-09-19T15:36:14;11.82;;;7.95;;
75021;SDS011;63583;49.976;20.182;2023-09-19T15:41:21;10.07;;;7.45;;
75021;SDS011;63583;49.976;20.182;2023-09-19T15:43:48;9.55;;;7.38;;
75021;SDS011;63583;49.976;20.182;2023-09-19T15:46:13;8.88;;;7.38;;